createdAt,value
2022-08-02T00:01:31.804Z,19.98
2022-08-02T00:04:03.687Z,19.92
2022-08-02T00:06:35.940Z,19.87
2022-08-02T00:09:08.176Z,19.84
2022-08-02T00:11:39.946Z,19.79
2022-08-02T00:14:14.995Z,19.75
2022-08-02T00:16:46.540Z,19.75
2022-08-02T00:19:18.627Z,19.72
2022-08-02T00:21:50.393Z,19.71
2022-08-02T00:24:30.819Z,19.67
2022-08-02T00:27:03.864Z,19.65
2022-08-02T00:29:42.706Z,19.61
2022-08-02T00:32:24.555Z,19.56
2022-08-02T00:34:56.296Z,19.51
2022-08-02T00:37:27.875Z,19.46
2022-08-02T00:39:59.745Z,19.47
2022-08-02T00:42:31.387Z,19.46
2022-08-02T00:45:03.090Z,19.42
2022-08-02T00:47:34.780Z,19.39
2022-08-02T00:50:07.477Z,19.35
2022-08-02T00:52:39.090Z,19.32
2022-08-02T00:55:12.690Z,19.33
2022-08-02T00:57:49.144Z,19.32
2022-08-02T01:00:21.743Z,19.28
2022-08-02T01:02:53.865Z,19.25
2022-08-02T01:05:25.818Z,19.23
2022-08-02T01:07:58.008Z,19.25
2022-08-02T01:10:29.671Z,19.27
2022-08-02T01:13:01.263Z,19.27
2022-08-02T01:15:36.176Z,19.29
2022-08-02T01:18:14.272Z,19.28
2022-08-02T01:21:34.263Z,19.27
2022-08-02T01:24:22.238Z,19.25
2022-08-02T01:27:04.428Z,19.24
2022-08-02T01:29:40.649Z,19.23
2022-08-02T01:32:15.939Z,19.22
2022-08-02T01:34:55.591Z,19.21
2022-08-02T01:37:30.892Z,19.20
2022-08-02T01:40:09.576Z,19.14
2022-08-02T01:42:46.806Z,19.10
2022-08-02T01:45:20.572Z,19.06
2022-08-02T01:47:53.487Z,19.02
2022-08-02T01:50:32.663Z,18.96
2022-08-02T01:53:07.756Z,18.91
2022-08-02T01:55:58.423Z,18.85
2022-08-02T01:58:36.051Z,18.78
2022-08-02T02:01:15.144Z,18.72
2022-08-02T02:03:51.699Z,18.68
2022-08-02T02:06:26.071Z,18.61
2022-08-02T02:09:00.391Z,18.52
2022-08-02T02:12:13.880Z,18.46
2022-08-02T02:14:25.746Z,18.36
2022-08-02T02:16:58.761Z,18.29
2022-08-02T02:19:32.352Z,18.22
2022-08-02T02:22:04.228Z,18.19
2022-08-02T02:24:36.842Z,18.15
2022-08-02T02:27:13.129Z,18.06
2022-08-02T02:29:49.913Z,17.98
2022-08-02T02:32:23.748Z,17.93
2022-08-02T02:34:57.055Z,17.87
2022-08-02T02:37:32.287Z,17.81
2022-08-02T02:40:07.872Z,17.70
2022-08-02T02:42:41.369Z,17.64
2022-08-02T02:45:14.869Z,17.56
2022-08-02T02:47:47.438Z,17.47
2022-08-02T02:50:23.060Z,17.41
2022-08-02T02:52:55.491Z,17.39
2022-08-02T02:55:28.595Z,17.37
2022-08-02T02:58:00.847Z,17.36
2022-08-02T03:00:50.784Z,17.36
2022-08-02T03:03:23.563Z,17.36
2022-08-02T03:05:56.151Z,17.36
2022-08-02T03:08:28.047Z,17.38
2022-08-02T03:11:00.191Z,17.41
2022-08-02T03:13:33.181Z,17.42
2022-08-02T03:16:09.657Z,17.39
2022-08-02T03:18:43.843Z,17.35
2022-08-02T03:21:16.128Z,17.33
2022-08-02T03:23:49.261Z,17.31
2022-08-02T03:26:21.534Z,17.30
2022-08-02T03:28:53.162Z,17.30
2022-08-02T03:31:24.917Z,17.30
2022-08-02T03:33:57.593Z,17.30
2022-08-02T03:36:32.991Z,17.23
2022-08-02T03:39:05.565Z,17.19
2022-08-02T03:41:39.584Z,17.17
2022-08-02T03:44:12.971Z,17.19
2022-08-02T03:46:45.561Z,17.25
2022-08-02T03:49:18.650Z,17.29
2022-08-02T03:51:50.886Z,17.34
2022-08-02T03:54:23.346Z,17.34
2022-08-02T03:57:09.631Z,17.33
2022-08-02T03:59:45.338Z,17.30
2022-08-02T04:02:17.275Z,17.30
2022-08-02T04:04:48.901Z,17.34
2022-08-02T04:08:31.774Z,17.38
2022-08-02T04:10:14.107Z,17.38
2022-08-02T04:12:48.220Z,17.38
2022-08-02T04:15:20.026Z,17.42
2022-08-02T04:18:01.233Z,17.52
2022-08-02T04:20:36.219Z,18.65
2022-08-02T04:23:11.217Z,20.55
2022-08-02T04:25:47.029Z,22.40
2022-08-02T04:28:27.528Z,24.10
2022-08-02T04:31:01.650Z,25.71
2022-08-02T04:33:34.237Z,27.10
2022-08-02T04:36:07.634Z,28.12
2022-08-02T04:38:39.615Z,29.13
2022-08-02T04:41:11.446Z,30.06
2022-08-02T04:43:43.616Z,30.85
2022-08-02T04:46:15.423Z,31.68
2022-08-02T04:48:47.218Z,32.51
2022-08-02T04:51:18.828Z,33.15
2022-08-02T04:53:50.560Z,32.86
2022-08-02T04:56:22.262Z,32.48
2022-08-02T04:58:53.921Z,31.55
2022-08-02T05:01:25.748Z,30.93
2022-08-02T05:03:57.907Z,29.95
2022-08-02T05:06:29.727Z,28.80
2022-08-02T05:09:01.600Z,27.73
2022-08-02T05:11:35.969Z,26.89
2022-08-02T05:14:08.613Z,26.37
2022-08-02T05:16:40.586Z,26.02
2022-08-02T05:19:12.484Z,27.26
2022-08-02T05:21:44.103Z,27.84
2022-08-02T05:24:15.757Z,29.00
2022-08-02T05:26:47.484Z,29.95
2022-08-02T05:29:19.366Z,30.15
2022-08-02T05:31:51.348Z,30.17
2022-08-02T05:34:23.101Z,29.72
2022-08-02T05:36:54.813Z,29.30
2022-08-02T05:39:27.257Z,28.73
2022-08-02T05:42:03.628Z,28.13
2022-08-02T05:44:35.397Z,27.44
2022-08-02T05:47:07.224Z,26.70
2022-08-02T05:49:38.931Z,26.05
2022-08-02T05:52:16.969Z,25.19
2022-08-02T05:54:55.901Z,24.55
2022-08-02T05:57:41.825Z,24.11
2022-08-02T06:00:17.680Z,23.52
2022-08-02T06:03:16.802Z,23.17
2022-08-02T06:05:55.685Z,22.83
2022-08-02T06:08:32.763Z,22.43
2022-08-02T06:11:06.593Z,22.10
2022-08-02T06:13:39.073Z,21.78
2022-08-02T06:16:14.180Z,21.58
2022-08-02T06:18:46.848Z,21.47
2022-08-02T06:22:32.098Z,21.27
2022-08-02T06:24:18.894Z,21.22
2022-08-02T06:26:52.909Z,21.18
2022-08-02T06:29:25.545Z,21.16
2022-08-02T06:31:59.704Z,21.01
2022-08-02T06:34:31.395Z,20.95
2022-08-02T06:37:12.730Z,21.02
2022-08-02T06:39:48.941Z,21.21
2022-08-02T06:42:33.514Z,21.40
2022-08-02T06:45:05.846Z,21.56
2022-08-02T06:47:37.731Z,21.68
2022-08-02T06:50:10.759Z,21.71
2022-08-02T06:52:43.012Z,21.80
2022-08-02T06:55:14.821Z,21.88
2022-08-02T06:57:47.397Z,21.98
2022-08-02T07:00:19.318Z,22.15
2022-08-02T07:02:55.051Z,22.23
2022-08-02T07:05:26.767Z,22.31
2022-08-02T07:07:58.960Z,22.34
2022-08-02T07:10:30.816Z,22.35
2022-08-02T07:13:02.679Z,22.32
2022-08-02T07:15:34.505Z,22.29
2022-08-02T07:18:06.844Z,22.34
2022-08-02T07:20:38.567Z,22.36
2022-08-02T07:23:10.377Z,22.46
2022-08-02T07:26:02.590Z,22.48
2022-08-02T07:28:34.378Z,22.41
2022-08-02T07:31:06.152Z,22.48
2022-08-02T07:33:40.126Z,22.56
2022-08-02T07:36:16.989Z,22.66
2022-08-02T07:38:54.571Z,22.73
2022-08-02T07:41:26.409Z,22.75
2022-08-02T07:43:58.126Z,22.83
2022-08-02T07:46:29.846Z,22.87
2022-08-02T07:49:01.644Z,22.94
2022-08-02T07:51:33.586Z,23.04
2022-08-02T07:54:05.928Z,23.10
2022-08-02T07:56:37.809Z,23.14
2022-08-02T07:59:10.518Z,23.26
2022-08-02T08:01:46.147Z,23.38
2022-08-02T08:04:18.089Z,23.46
2022-08-02T08:06:52.181Z,23.52
2022-08-02T08:09:23.943Z,23.68
2022-08-02T08:11:55.615Z,23.83
2022-08-02T08:14:27.314Z,23.91
2022-08-02T08:16:59.341Z,23.94
2022-08-02T08:19:50.585Z,24.02
2022-08-02T08:22:24.110Z,24.13
2022-08-02T08:24:55.862Z,24.27
2022-08-02T08:27:27.602Z,24.39
2022-08-02T08:29:59.327Z,24.53
2022-08-02T08:32:31.046Z,24.70
2022-08-02T08:35:04.069Z,24.96
2022-08-02T08:37:39.113Z,25.12
2022-08-02T08:40:19.640Z,25.25
2022-08-02T08:42:51.614Z,25.32
2022-08-02T08:45:23.454Z,25.27
2022-08-02T08:48:02.906Z,25.17
2022-08-02T08:50:37.258Z,25.12
2022-08-02T08:53:13.835Z,25.10
2022-08-02T08:55:46.713Z,25.05
2022-08-02T08:58:18.528Z,25.12
2022-08-02T09:00:50.368Z,25.47
2022-08-02T09:03:22.809Z,25.78
2022-08-02T09:05:54.516Z,25.90
2022-08-02T09:08:26.437Z,25.96
2022-08-02T09:10:59.980Z,25.95
2022-08-02T09:13:45.148Z,26.11
2022-08-02T09:16:28.314Z,26.63
2022-08-02T09:19:01.727Z,26.93
2022-08-02T09:21:39.085Z,26.95
2022-08-02T09:24:21.179Z,26.85
2022-08-02T09:26:54.017Z,26.78
2022-08-02T09:29:26.401Z,26.90
2022-08-02T09:32:05.065Z,26.97
2022-08-02T09:34:54.699Z,27.03
2022-08-02T09:37:28.437Z,26.99
2022-08-02T09:40:02.904Z,27.08
2022-08-02T09:42:34.636Z,27.10
2022-08-02T09:45:07.294Z,27.09
2022-08-02T09:47:42.033Z,27.01
2022-08-02T09:50:15.740Z,26.98
2022-08-02T09:52:47.568Z,27.07
2022-08-02T09:55:19.327Z,27.25
2022-08-02T09:57:51.409Z,27.40
2022-08-02T10:00:43.495Z,27.58
2022-08-02T10:03:22.248Z,27.42
2022-08-02T10:06:02.045Z,27.11
2022-08-02T10:08:35.059Z,26.84
2022-08-02T10:11:06.990Z,26.61
2022-08-02T10:13:38.887Z,26.54
2022-08-02T10:16:11.228Z,26.68
2022-08-02T10:18:42.908Z,26.81
2022-08-02T10:21:19.446Z,26.86
2022-08-02T10:23:53.689Z,27.00
2022-08-02T10:26:25.510Z,27.19
2022-08-02T10:28:57.191Z,27.44
2022-08-02T10:31:34.252Z,27.53
2022-08-02T10:34:08.701Z,27.63
2022-08-02T10:36:42.966Z,27.82
2022-08-02T10:39:15.029Z,27.74
2022-08-02T10:41:52.169Z,27.73
2022-08-02T10:44:28.303Z,27.87
2022-08-02T10:47:24.893Z,27.79
2022-08-02T10:49:58.478Z,27.81
2022-08-02T10:52:31.333Z,27.82
2022-08-02T10:55:13.198Z,28.01
2022-08-02T10:57:48.781Z,28.28
2022-08-02T11:00:30.398Z,28.44
2022-08-02T11:03:02.119Z,28.51
2022-08-02T11:05:43.428Z,28.58
2022-08-02T11:08:22.828Z,28.71
2022-08-02T11:10:59.091Z,28.70
2022-08-02T11:13:31.442Z,28.43
2022-08-02T11:16:11.352Z,28.36
2022-08-02T11:19:07.099Z,28.49
2022-08-02T11:21:39.305Z,28.70
2022-08-02T11:24:31.421Z,28.81
2022-08-02T11:27:04.753Z,28.59
2022-08-02T11:29:39.000Z,28.35
2022-08-02T11:32:18.177Z,28.13
2022-08-02T11:34:52.890Z,27.97
2022-08-02T11:37:35.894Z,27.88
2022-08-02T11:40:19.346Z,28.07
2022-08-02T11:42:53.832Z,28.27
2022-08-02T11:45:29.947Z,28.40
2022-08-02T11:48:01.798Z,28.37
2022-08-02T11:50:33.914Z,28.31
2022-08-02T11:53:15.829Z,28.38
2022-08-02T11:55:47.570Z,28.40
2022-08-02T11:58:19.323Z,28.46
2022-08-02T12:00:51.055Z,28.50
2022-08-02T12:03:23.207Z,28.71
2022-08-02T12:06:05.486Z,28.88
2022-08-02T12:08:39.754Z,28.97
2022-08-02T12:11:11.404Z,29.03
2022-08-02T12:13:56.494Z,29.02
2022-08-02T12:16:53.613Z,29.12
2022-08-02T12:19:27.758Z,29.10
2022-08-02T12:22:20.098Z,29.05
2022-08-02T12:24:58.713Z,28.82
2022-08-02T12:27:35.901Z,28.79
2022-08-02T12:30:13.892Z,28.87
2022-08-02T12:32:46.529Z,28.82
2022-08-02T12:35:26.017Z,28.69
2022-08-02T12:37:58.797Z,28.67
2022-08-02T12:40:33.564Z,28.59
2022-08-02T12:43:07.801Z,28.54
2022-08-02T12:45:53.305Z,28.47
2022-08-02T12:48:52.335Z,28.48
2022-08-02T12:51:55.858Z,28.68
2022-08-02T12:54:30.986Z,28.76
2022-08-02T12:57:14.528Z,28.78
2022-08-02T12:59:51.312Z,28.80
2022-08-02T13:02:23.151Z,28.78
2022-08-02T13:04:54.921Z,28.65
2022-08-02T13:07:26.691Z,28.43
2022-08-02T13:10:03.182Z,28.36
2022-08-02T13:12:36.707Z,28.29
2022-08-02T13:15:12.493Z,28.40
2022-08-02T13:18:02.859Z,28.58
2022-08-02T13:20:34.848Z,28.80
2022-08-02T13:23:06.658Z,28.94
2022-08-02T13:25:38.990Z,29.24
2022-08-02T13:28:11.087Z,29.33
2022-08-02T13:30:43.258Z,29.16
2022-08-02T13:33:15.042Z,29.11
2022-08-02T13:35:47.718Z,29.11
2022-08-02T13:38:24.573Z,28.99
2022-08-02T13:41:13.621Z,29.12
2022-08-02T13:43:53.583Z,29.40
2022-08-02T13:46:28.928Z,29.71
2022-08-02T13:49:02.034Z,29.99
2022-08-02T13:51:33.681Z,30.26
2022-08-02T13:54:09.202Z,30.46
2022-08-02T13:56:40.867Z,30.58
2022-08-02T13:59:54.131Z,30.68
2022-08-02T14:02:05.493Z,30.77
2022-08-02T14:04:39.023Z,30.92
2022-08-02T14:07:10.814Z,30.98
2022-08-02T14:09:43.716Z,30.99
2022-08-02T14:12:16.020Z,30.98
2022-08-02T14:14:47.904Z,31.01
2022-08-02T14:17:19.882Z,31.05
2022-08-02T14:19:52.033Z,31.06
2022-08-02T14:22:24.081Z,31.14
2022-08-02T14:24:57.748Z,31.20
2022-08-02T14:27:40.869Z,31.21
2022-08-02T14:30:15.395Z,31.10
2022-08-02T14:32:47.090Z,30.98
2022-08-02T14:35:19.002Z,30.83
2022-08-02T14:37:50.658Z,30.76
2022-08-02T14:40:30.803Z,30.71
2022-08-02T14:43:04.198Z,30.68
2022-08-02T14:45:40.944Z,30.69
2022-08-02T14:48:13.844Z,30.71
2022-08-02T14:50:45.506Z,30.63
2022-08-02T14:53:17.115Z,30.47
2022-08-02T14:55:49.621Z,30.44
2022-08-02T14:58:21.353Z,30.45
2022-08-02T15:00:53.081Z,30.28
2022-08-02T15:03:25.093Z,30.07
2022-08-02T15:05:57.011Z,29.97
2022-08-02T15:08:28.689Z,29.95
2022-08-02T15:11:00.369Z,30.04
2022-08-02T15:13:32.042Z,30.11
2022-08-02T15:16:03.681Z,30.06
2022-08-02T15:18:35.314Z,29.86
2022-08-02T15:21:18.109Z,29.66
2022-08-02T15:23:59.158Z,29.40
2022-08-02T15:26:30.896Z,29.14
2022-08-02T15:29:02.438Z,28.90
2022-08-02T15:31:35.985Z,28.72
2022-08-02T15:34:09.649Z,28.71
2022-08-02T15:36:41.499Z,28.77
2022-08-02T15:39:13.531Z,28.80
2022-08-02T15:41:45.333Z,28.75
2022-08-02T15:44:16.968Z,28.66
2022-08-02T15:46:48.913Z,28.56
2022-08-02T15:49:23.829Z,28.37
2022-08-02T15:51:56.153Z,28.23
2022-08-02T15:54:27.958Z,28.30
2022-08-02T15:56:59.616Z,28.45
2022-08-02T15:59:31.432Z,28.57
2022-08-02T16:02:03.412Z,28.69
2022-08-02T16:04:35.304Z,28.77
2022-08-02T16:07:07.231Z,28.80
2022-08-02T16:09:39.209Z,28.68
2022-08-02T16:12:11.261Z,28.51
2022-08-02T16:14:43.174Z,28.36
2022-08-02T16:17:14.869Z,28.24
2022-08-02T16:20:08.898Z,28.21
2022-08-02T16:22:40.619Z,28.13
2022-08-02T16:25:17.127Z,28.01
2022-08-02T16:28:06.007Z,27.89
2022-08-02T16:30:38.744Z,27.79
2022-08-02T16:33:11.026Z,27.75
2022-08-02T16:35:47.475Z,27.75
2022-08-02T16:38:19.469Z,27.76
2022-08-02T16:40:51.218Z,27.75
2022-08-02T16:43:22.975Z,27.78
2022-08-02T16:45:54.645Z,27.82
2022-08-02T16:48:26.477Z,27.85
2022-08-02T16:50:58.315Z,27.87
2022-08-02T16:53:37.289Z,27.85
2022-08-02T16:56:24.411Z,27.82
2022-08-02T16:58:59.620Z,27.80
2022-08-02T17:02:03.959Z,27.76
2022-08-02T17:04:39.276Z,27.69
2022-08-02T17:08:06.116Z,27.60
2022-08-02T17:10:09.449Z,27.53
2022-08-02T17:12:42.053Z,27.47
2022-08-02T17:16:01.720Z,27.41
2022-08-02T17:18:08.862Z,27.34
2022-08-02T17:20:40.886Z,27.29
2022-08-02T17:23:16.177Z,27.21
2022-08-02T17:25:52.354Z,27.12
2022-08-02T17:28:31.443Z,27.06
2022-08-02T17:31:05.103Z,26.99
2022-08-02T17:33:36.911Z,26.93
2022-08-02T17:36:09.428Z,26.87
2022-08-02T17:38:50.122Z,26.80
2022-08-02T17:41:37.487Z,26.71
2022-08-02T17:44:10.279Z,26.64
2022-08-02T17:46:43.207Z,26.56
2022-08-02T17:49:20.991Z,26.49
2022-08-02T17:52:15.897Z,26.41
2022-08-02T17:54:45.295Z,26.31
2022-08-02T17:57:16.959Z,26.22
2022-08-02T18:00:04.214Z,26.10
2022-08-02T18:02:38.476Z,25.96
2022-08-02T18:05:14.567Z,25.84
2022-08-02T18:07:53.171Z,25.70
2022-08-02T18:10:27.395Z,25.59
2022-08-02T18:13:06.802Z,25.49
2022-08-02T18:15:39.526Z,25.40
2022-08-02T18:18:12.070Z,25.31
2022-08-02T18:20:43.909Z,25.23
2022-08-02T18:23:16.031Z,25.14
2022-08-02T18:25:53.158Z,25.06
2022-08-02T18:28:27.023Z,24.96
2022-08-02T18:30:58.749Z,24.86
2022-08-02T18:39:14.116Z,24.53
2022-08-02T18:41:47.974Z,24.46
2022-08-02T18:44:19.838Z,24.38
2022-08-02T18:46:51.605Z,24.30
2022-08-02T18:49:37.400Z,24.23
2022-08-02T18:52:31.164Z,24.16
2022-08-02T18:55:07.385Z,24.06
2022-08-02T18:58:02.231Z,23.99
2022-08-02T19:00:40.123Z,23.91
2022-08-02T19:03:12.072Z,23.85
2022-08-02T19:05:51.608Z,23.81
2022-08-02T19:08:26.473Z,23.76
2022-08-02T19:11:02.602Z,23.69
2022-08-02T19:13:38.105Z,23.63
2022-08-02T19:16:14.233Z,23.58
2022-08-02T19:18:45.956Z,23.54
2022-08-02T19:21:18.617Z,23.50
2022-08-02T19:24:12.308Z,23.44
2022-08-02T19:26:44.236Z,23.39
2022-08-02T19:29:41.983Z,23.34
2022-08-02T19:32:42.589Z,23.27
2022-08-02T19:35:19.782Z,23.24
2022-08-02T19:38:09.438Z,23.20
2022-08-02T19:40:43.031Z,23.17
2022-08-02T19:44:21.776Z,23.12
2022-08-02T19:46:07.054Z,23.07
2022-08-02T19:48:47.465Z,23.02
2022-08-02T19:51:54.855Z,22.95
2022-08-02T19:54:12.251Z,22.90
2022-08-02T19:56:45.310Z,22.85
2022-08-02T19:59:17.077Z,22.81
2022-08-02T20:01:49.494Z,22.79
2022-08-02T20:04:23.179Z,22.77
2022-08-02T20:06:55.494Z,22.72
2022-08-02T20:09:33.411Z,22.68
2022-08-02T20:12:18.822Z,22.65
2022-08-02T20:14:52.089Z,22.61
2022-08-02T20:17:27.685Z,22.57
2022-08-02T20:19:59.411Z,22.52
2022-08-02T20:22:31.264Z,22.49
2022-08-02T20:25:07.836Z,22.47
2022-08-02T20:27:39.734Z,22.44
2022-08-02T20:30:25.528Z,22.43
2022-08-02T20:33:02.566Z,22.38
2022-08-02T20:35:51.857Z,22.34
2022-08-02T20:38:29.837Z,22.32
2022-08-02T20:41:04.115Z,22.28
2022-08-02T20:43:35.922Z,22.24
2022-08-02T20:46:07.568Z,22.19
2022-08-02T20:48:40.351Z,22.15
2022-08-02T20:51:14.154Z,22.12
2022-08-02T20:53:54.964Z,22.10
2022-08-02T20:56:28.198Z,22.07
2022-08-02T20:59:04.078Z,22.03
2022-08-02T21:01:57.181Z,21.99
2022-08-02T21:04:29.617Z,21.96
2022-08-02T21:07:01.373Z,21.91
2022-08-02T21:09:52.908Z,21.88
2022-08-02T21:12:30.021Z,21.88
2022-08-02T21:15:02.158Z,21.86
2022-08-02T21:17:43.472Z,21.80
2022-08-02T21:23:19.911Z,21.72
2022-08-02T21:25:57.289Z,21.68
2022-08-02T21:28:43.275Z,21.64
2022-08-02T21:31:16.551Z,21.59
2022-08-02T21:33:58.469Z,21.56
2022-08-02T21:36:33.728Z,21.52
2022-08-02T21:39:09.144Z,21.48
2022-08-02T21:41:46.862Z,21.47
2022-08-02T21:44:21.839Z,21.47
2022-08-02T21:46:55.819Z,21.45
2022-08-02T21:50:08.514Z,21.43
2022-08-02T21:52:20.251Z,21.39
2022-08-02T21:54:58.056Z,21.38
2022-08-02T21:57:34.582Z,21.37
2022-08-02T22:00:11.597Z,21.33
2022-08-02T22:02:43.521Z,21.32
2022-08-02T22:05:15.218Z,21.31
2022-08-02T22:07:46.813Z,21.30
2022-08-02T22:10:22.438Z,21.29
2022-08-02T22:12:54.480Z,21.26
2022-08-02T22:15:36.123Z,21.23
2022-08-02T22:18:14.403Z,21.21
2022-08-02T22:20:47.645Z,21.18
2022-08-02T22:23:38.837Z,21.13
2022-08-02T22:26:15.360Z,21.07
2022-08-02T22:28:56.113Z,21.05
2022-08-02T22:31:41.211Z,21.01
2022-08-02T22:34:37.081Z,20.97
2022-08-02T22:37:07.558Z,20.93
2022-08-02T22:40:02.915Z,20.89
2022-08-02T22:42:31.097Z,20.84
2022-08-02T22:45:02.875Z,20.80
2022-08-02T22:47:38.747Z,20.77
2022-08-02T22:50:22.865Z,20.73
2022-08-02T22:52:54.575Z,20.69
2022-08-02T22:55:32.343Z,20.66
2022-08-02T22:58:04.333Z,20.63
2022-08-02T22:58:44.950Z,24.64
2022-08-02T22:58:59.656Z,24.76
2022-08-02T22:59:10.630Z,21.76
2022-08-02T23:00:36.163Z,20.56
2022-08-02T23:03:08.014Z,20.48
2022-08-02T23:05:40.102Z,20.39
2022-08-02T23:08:12.124Z,20.29
2022-08-02T23:10:43.917Z,20.23
2022-08-02T23:13:16.031Z,20.09
2022-08-02T23:16:05.604Z,19.98
2022-08-02T23:18:55.120Z,19.88
2022-08-02T23:21:46.013Z,19.78
2022-08-02T23:24:18.848Z,19.72
2022-08-02T23:26:50.493Z,19.69
2022-08-02T23:29:22.827Z,19.64
2022-08-02T23:31:54.472Z,19.57
2022-08-02T23:34:26.963Z,19.47
2022-08-02T23:36:58.661Z,19.44
2022-08-02T23:39:30.336Z,19.42
2022-08-02T23:42:02.452Z,19.38
2022-08-02T23:44:34.277Z,19.36
2022-08-02T23:47:06.150Z,19.36
2022-08-02T23:49:38.020Z,19.34
2022-08-02T23:52:10.001Z,19.32
2022-08-02T23:54:41.709Z,19.30
2022-08-02T23:57:19.760Z,19.29
2022-08-02T23:59:53.789Z,19.30
